Time;durP1;ratioP1;P1;durP2;ratioP2;P2;SDS_P1;SDS_P2;PMS_P1;PMS_P2;Temp;Humidity;BMP_temperature;BMP_pressure;BME280_temperature;BME280_humidity;BME280_pressure;Samples;Min_cycle;Max_cycle;Signal;HPM_P1;HPM_P2
2022/11/12 00:00:39;;;;;;;11.63;3.80;;;;;;;-144.40;100.00;60209.53;4854655;29;20187;-93
2022/11/12 00:03:05;;;;;;;12.98;3.25;;;;;;;-144.40;100.00;60209.53;4851721;29;20400;-93
2022/11/12 00:05:32;;;;;;;6.70;2.85;;;;;;;-144.40;100.00;60209.53;4857255;29;20040;-90
2022/11/12 00:07:57;;;;;;;12.40;2.80;;;;;;;-144.40;100.00;60209.53;4856538;29;20036;-93
2022/11/12 00:10:23;;;;;;;8.23;3.03;;;;;;;-144.40;100.00;60209.53;4855980;29;20477;-93
2022/11/12 00:12:49;;;;;;;11.93;3.42;;;;;;;-144.40;100.00;60209.53;4855501;29;20045;-92
2022/11/12 00:15:14;;;;;;;10.02;3.72;;;;;;;-144.40;100.00;60209.53;4858822;29;20504;-94
2022/11/12 00:17:40;;;;;;;9.45;4.05;;;;;;;-144.40;100.00;60209.53;4853596;29;20022;-93
2022/11/12 00:20:07;;;;;;;12.32;3.33;;;;;;;-144.40;100.00;60209.53;4853327;29;20034;-92
2022/11/12 00:22:32;;;;;;;8.57;3.38;;;;;;;-144.40;100.00;60209.53;4854179;29;20032;-93
2022/11/12 00:24:58;;;;;;;10.00;3.60;;;;;;;-144.40;100.00;60209.53;4851235;29;20030;-93
2022/11/12 00:27:24;;;;;;;9.95;3.63;;;;;;;-144.40;100.00;60209.53;4853765;29;20389;-92
2022/11/12 00:29:49;;;;;;;12.27;2.97;;;;;;;-144.40;100.00;60209.53;4848752;29;20037;-93
2022/11/12 00:32:15;;;;;;;9.02;3.00;;;;;;;-144.40;100.00;60209.53;4856739;29;20045;-92
2022/11/12 00:34:40;;;;;;;11.27;3.28;;;;;;;-144.40;100.00;60209.53;4853147;29;20109;-93
2022/11/12 00:37:06;;;;;;;10.27;4.22;;;;;;;-144.40;100.00;60209.53;4852906;29;20029;-92
2022/11/12 00:39:32;;;;;;;11.63;3.45;;;;;;;-144.40;100.00;60209.53;4852014;29;20077;-94
2022/11/12 00:41:58;;;;;;;8.27;3.03;;;;;;;-144.40;100.00;60209.53;4840407;29;20037;-94
2022/11/12 00:44:23;;;;;;;9.80;2.58;;;;;;;-144.40;100.00;60209.53;4853181;29;20034;-94
2022/11/12 00:46:49;;;;;;;8.10;3.42;;;;;;;-144.40;100.00;60209.53;4855714;29;20034;-94
2022/11/12 00:49:14;;;;;;;10.43;3.90;;;;;;;-144.40;100.00;60209.53;4856157;29;20029;-93
2022/11/12 00:51:41;;;;;;;9.30;3.38;;;;;;;-144.40;100.00;60209.53;4850744;29;20032;-92
2022/11/12 00:54:07;;;;;;;9.90;3.78;;;;;;;-144.40;100.00;60209.53;4853448;29;20044;-93
2022/11/12 00:56:32;;;;;;;11.00;3.30;;;;;;;-144.40;100.00;60209.53;4850302;29;20120;-93
2022/11/12 00:58:58;;;;;;;6.53;2.97;;;;;;;-144.40;100.00;60209.53;4855354;29;20065;-93
2022/11/12 01:01:25;;;;;;;11.88;3.72;;;;;;;-144.40;100.00;60209.53;4853929;29;20037;-94
2022/11/12 01:03:51;;;;;;;10.95;3.60;;;;;;;-144.40;100.00;60209.53;4850317;29;20044;-93
2022/11/12 01:06:21;;;;;;;6.47;3.30;;;;;;;-144.40;100.00;60209.53;4859078;29;20054;-91
2022/11/12 01:08:48;;;;;;;7.68;3.10;;;;;;;-144.40;100.00;60209.53;4858514;29;20040;-92
2022/11/12 01:11:15;;;;;;;9.13;3.15;;;;;;;-144.40;100.00;60209.53;4857532;29;20025;-93
2022/11/12 01:13:43;;;;;;;8.95;3.00;;;;;;;-144.40;100.00;60209.53;4858720;29;20056;-91
2022/11/12 01:16:13;;;;;;;6.35;2.80;;;;;;;-144.40;100.00;60209.53;4855580;29;20480;-92
2022/11/12 01:18:39;;;;;;;8.32;3.53;;;;;;;-144.40;100.00;60209.53;4858777;29;20029;-92
2022/11/12 01:21:06;;;;;;;11.80;3.33;;;;;;;-144.40;100.00;60209.53;4854559;29;20040;-92
2022/11/12 01:23:34;;;;;;;5.93;2.78;;;;;;;-144.40;100.00;60209.53;4857187;29;20084;-91
2022/11/12 01:26:06;;;;;;;13.77;3.78;;;;;;;-144.40;100.00;60209.53;4854933;29;22089;-93
2022/11/12 01:28:32;;;;;;;8.40;3.30;;;;;;;-144.40;100.00;60209.53;4854480;29;20033;-93
2022/11/12 01:31:16;;;;;;;10.63;3.58;;;;;;;-144.40;100.00;60209.53;4852591;29;20037;-94
2022/11/12 01:33:44;;;;;;;13.73;3.17;;;;;;;-144.40;100.00;60209.53;4856769;29;20022;-93
2022/11/12 01:36:10;;;;;;;8.90;3.35;;;;;;;-144.40;100.00;60209.53;4854644;29;20045;-93
2022/11/12 01:38:37;;;;;;;10.32;3.00;;;;;;;-144.40;100.00;60209.53;4855269;29;20074;-93
2022/11/12 01:41:03;;;;;;;7.32;2.63;;;;;;;-144.40;100.00;60209.53;4854754;29;20040;-94
2022/11/12 01:43:29;;;;;;;14.02;2.80;;;;;;;-144.40;100.00;60209.53;4853762;29;20040;-94
2022/11/12 01:45:56;;;;;;;10.82;2.50;;;;;;;-144.40;100.00;60209.53;4857473;29;20397;-93
2022/11/12 01:48:35;;;;;;;13.05;2.83;;;;;;;-144.40;100.00;60209.53;4856425;29;20522;-93
2022/11/12 01:51:03;;;;;;;6.63;1.90;;;;;;;-144.40;100.00;60209.53;4870018;29;20041;-94
2022/11/12 01:53:33;;;;;;;7.50;2.75;;;;;;;-144.40;100.00;60209.53;4856304;29;20026;-94
2022/11/12 01:56:00;;;;;;;11.15;3.25;;;;;;;-144.40;100.00;60209.53;4856897;29;20173;-94
2022/11/12 01:58:28;;;;;;;9.80;2.97;;;;;;;-144.40;100.00;60209.53;4852666;29;20041;-94
2022/11/12 02:00:55;;;;;;;8.75;2.70;;;;;;;-144.40;100.00;60209.53;4855878;29;20048;-93
2022/11/12 02:03:23;;;;;;;8.85;2.35;;;;;;;-144.40;100.00;60209.53;4840656;29;20033;-94
2022/11/12 02:05:55;;;;;;;12.02;2.63;;;;;;;-144.40;100.00;60209.53;4856516;29;20549;-94
2022/11/12 02:08:23;;;;;;;8.40;2.25;;;;;;;-144.40;100.00;60209.53;4852411;29;20468;-95
2022/11/12 02:10:49;;;;;;;4.32;2.42;;;;;;;-144.40;100.00;60209.53;4852684;29;20041;-94
2022/11/12 02:16:02;;;;;;;6.38;2.38;;;;;;;-144.40;100.00;60209.53;4843934;29;20524;-93
2022/11/12 02:18:28;;;;;;;12.52;2.35;;;;;;;-144.40;100.00;60209.53;4857098;29;20045;-94
2022/11/12 02:20:56;;;;;;;6.20;2.38;;;;;;;-144.40;100.00;60209.53;4854895;29;20030;-93
2022/11/12 02:23:21;;;;;;;5.50;2.10;;;;;;;-144.40;100.00;60209.53;4858318;29;20309;-93
2022/11/12 02:25:47;;;;;;;9.27;2.63;;;;;;;-144.40;100.00;60209.53;4854984;29;20301;-92
2022/11/12 02:28:12;;;;;;;8.93;2.63;;;;;;;-144.40;100.00;60209.53;4853279;29;20040;-91
2022/11/12 02:30:46;;;;;;;9.48;2.33;;;;;;;-144.40;100.00;60209.53;4852128;29;20473;-91
2022/11/12 02:33:12;;;;;;;8.27;2.42;;;;;;;-144.40;100.00;60209.53;4854102;29;20038;-95
2022/11/12 02:35:37;;;;;;;9.43;2.30;;;;;;;-144.40;100.00;60209.53;4840954;29;20041;-93
2022/11/12 02:38:04;;;;;;;10.48;3.17;;;;;;;-144.40;100.00;60209.53;4841491;29;20121;-94
2022/11/12 02:40:29;;;;;;;8.70;3.60;;;;;;;-144.40;100.00;60209.53;4853155;29;20032;-93
2022/11/12 02:42:55;;;;;;;7.00;2.72;;;;;;;-144.40;100.00;60209.53;4851279;29;20038;-92
2022/11/12 02:45:21;;;;;;;5.00;2.30;;;;;;;-144.40;100.00;60209.53;4853611;29;20453;-94
2022/11/12 02:47:47;;;;;;;9.63;2.50;;;;;;;-144.40;100.00;60209.53;4841748;29;20037;-94
2022/11/12 02:50:12;;;;;;;4.93;2.50;;;;;;;-144.40;100.00;60209.53;4850654;29;20082;-95
2022/11/12 02:52:40;;;;;;;5.60;2.30;;;;;;;-144.40;100.00;60209.53;4857770;29;20412;-93
2022/11/12 02:55:08;;;;;;;11.48;2.35;;;;;;;-144.40;100.00;60209.53;4867638;29;20052;-94
2022/11/12 02:57:34;;;;;;;9.10;2.53;;;;;;;-144.40;100.00;60209.53;4853574;29;20401;-94
2022/11/12 03:00:00;;;;;;;7.80;2.67;;;;;;;-144.40;100.00;60209.53;4853219;29;20044;-94
2022/11/12 03:02:25;;;;;;;9.60;2.90;;;;;;;-144.40;100.00;60209.53;4857675;29;20120;-93
2022/11/12 03:04:51;;;;;;;8.13;2.38;;;;;;;-144.40;100.00;60209.53;4860369;29;20485;-94
2022/11/12 03:07:16;;;;;;;6.22;2.30;;;;;;;-144.40;100.00;60209.53;4854527;29;20104;-93
2022/11/12 03:09:42;;;;;;;7.07;1.95;;;;;;;-144.40;100.00;60209.53;4856719;29;20373;-93
2022/11/12 03:12:08;;;;;;;8.73;2.85;;;;;;;-144.40;100.00;60209.53;4851867;29;20034;-93
2022/11/12 03:14:33;;;;;;;8.00;2.42;;;;;;;-144.40;100.00;60209.53;4863746;29;20057;-93
2022/11/12 03:16:59;;;;;;;9.27;3.35;;;;;;;-144.40;100.00;60209.53;4854365;29;20124;-94
2022/11/12 03:19:24;;;;;;;16.42;3.47;;;;;;;-144.40;100.00;60209.53;4858155;29;20050;-94
2022/11/12 03:21:49;;;;;;;7.50;3.60;;;;;;;-144.40;100.00;60209.53;4851372;29;20041;-94
2022/11/12 03:24:15;;;;;;;8.25;2.60;;;;;;;-144.40;100.00;60209.53;4850579;29;20481;-94
2022/11/12 03:26:40;;;;;;;11.60;3.22;;;;;;;-144.40;100.00;60209.53;4852500;29;20090;-94
2022/11/12 03:29:06;;;;;;;12.88;3.35;;;;;;;-144.40;100.00;60209.53;4854272;29;20022;-94
2022/11/12 03:31:32;;;;;;;8.50;3.38;;;;;;;-144.40;100.00;60209.53;4850612;29;20030;-93
2022/11/12 03:33:57;;;;;;;6.28;2.70;;;;;;;-144.40;100.00;60209.53;4857960;29;20103;-94
2022/11/12 03:36:23;;;;;;;9.80;3.17;;;;;;;-144.40;100.00;60209.53;4857386;29;20033;-95
2022/11/12 03:38:48;;;;;;;8.85;3.78;;;;;;;-144.40;100.00;60209.53;4853518;29;20369;-94
2022/11/12 03:41:14;;;;;;;5.72;2.65;;;;;;;-144.40;100.00;60209.53;4849969;29;20033;-92
2022/11/12 03:43:39;;;;;;;9.68;3.65;;;;;;;-144.40;100.00;60209.53;4855459;29;20400;-95
2022/11/12 03:46:04;;;;;;;7.18;3.13;;;;;;;-144.40;100.00;60209.53;4858910;29;20037;-94
2022/11/12 03:48:30;;;;;;;9.73;3.92;;;;;;;-144.40;100.00;60209.53;4857465;29;20458;-94
2022/11/12 03:50:59;;;;;;;9.18;4.35;;;;;;;-144.40;100.00;60209.53;4843899;29;20034;-93
2022/11/12 03:53:25;;;;;;;9.60;3.85;;;;;;;-144.40;100.00;60209.53;4867895;29;20033;-93
2022/11/12 03:55:50;;;;;;;10.25;4.00;;;;;;;-144.40;100.00;60209.53;4852401;29;20026;-92
2022/11/12 03:58:16;;;;;;;5.88;3.50;;;;;;;-144.40;100.00;60209.53;4854415;29;20034;-94
2022/11/12 04:00:41;;;;;;;15.80;4.90;;;;;;;-144.40;100.00;60209.53;4855753;29;21380;-95
2022/11/12 04:03:07;;;;;;;6.30;3.75;;;;;;;-144.40;100.00;60209.53;4854107;29;20500;-94
2022/11/12 04:08:37;;;;;;;14.05;4.10;;;;;;;-144.40;100.00;60209.53;4860594;29;20100;-92
2022/11/12 04:11:04;;;;;;;7.35;3.75;;;;;;;-144.40;100.00;60209.53;4850227;29;20030;-93
2022/11/12 04:13:30;;;;;;;14.65;4.72;;;;;;;-144.40;100.00;60209.53;4854490;29;20120;-93
2022/11/12 04:21:50;;;;;;;11.85;4.57;;;;;;;-144.40;100.00;60209.53;4851104;29;20109;-93
2022/11/12 04:27:13;;;;;;;15.20;4.15;;;;;;;-144.40;100.00;60209.53;4851162;29;20080;-95
2022/11/12 04:32:24;;;;;;;8.77;4.70;;;;;;;-144.40;100.00;60209.53;4854340;29;20075;-94
2022/11/12 04:34:50;;;;;;;13.65;4.82;;;;;;;-144.40;100.00;60209.53;4855496;29;20508;-94
2022/11/12 04:37:16;;;;;;;10.27;5.00;;;;;;;-144.40;100.00;60209.53;4854965;29;20202;-93
2022/11/12 04:39:41;;;;;;;5.95;4.45;;;;;;;-144.40;100.00;60209.53;4854637;29;20499;-94
2022/11/12 04:44:58;;;;;;;15.98;4.95;;;;;;;-144.40;100.00;60209.53;4846627;29;20111;-93
2022/11/12 04:47:25;;;;;;;14.70;5.03;;;;;;;-144.40;100.00;60209.53;4872588;29;20089;-94
2022/11/12 04:49:50;;;;;;;11.85;5.45;;;;;;;-144.40;100.00;60209.53;4857411;29;20041;-95
2022/11/12 04:52:16;;;;;;;11.90;5.55;;;;;;;-144.40;100.00;60209.53;4854755;29;20454;-95
2022/11/12 04:54:41;;;;;;;14.90;5.90;;;;;;;-144.40;100.00;60209.53;4872382;29;20029;-94
2022/11/12 04:57:07;;;;;;;11.43;4.93;;;;;;;-144.40;100.00;60209.53;4855116;29;20060;-94
2022/11/12 04:59:32;;;;;;;13.23;5.05;;;;;;;-144.40;100.00;60209.53;4854936;29;20027;-92
2022/11/12 05:01:58;;;;;;;10.20;4.50;;;;;;;-144.40;100.00;60209.53;4854707;29;20485;-93
2022/11/12 05:04:26;;;;;;;10.38;5.28;;;;;;;-144.40;100.00;60209.53;4872518;29;20056;-92
2022/11/12 05:06:53;;;;;;;13.13;5.85;;;;;;;-144.40;100.00;60209.53;4846306;29;20026;-92
2022/11/12 05:09:27;;;;;;;8.73;4.97;;;;;;;-144.40;100.00;60209.53;4855548;29;20172;-92
2022/11/12 05:11:56;;;;;;;15.63;5.15;;;;;;;-144.40;100.00;60209.53;4855449;29;20033;-93
2022/11/12 05:14:22;;;;;;;10.95;5.35;;;;;;;-144.40;100.00;60209.53;4855854;29;20125;-94
2022/11/12 05:16:48;;;;;;;12.65;5.20;;;;;;;-144.40;100.00;60209.53;4855656;29;20030;-94
2022/11/12 05:19:14;;;;;;;9.50;4.97;;;;;;;-144.40;100.00;60209.53;4855552;29;20090;-95
2022/11/12 05:24:23;;;;;;;10.52;5.20;;;;;;;-144.40;100.00;60209.53;4856209;29;20555;-94
2022/11/12 05:26:49;;;;;;;8.27;4.93;;;;;;;-144.40;100.00;60209.53;4852347;29;20026;-94
2022/11/12 05:29:15;;;;;;;13.38;4.97;;;;;;;-144.40;100.00;60209.53;4855638;29;20034;-94
2022/11/12 05:31:41;;;;;;;17.45;5.47;;;;;;;-144.40;100.00;60209.53;4854482;29;20038;-92
2022/11/12 05:34:06;;;;;;;15.35;5.25;;;;;;;-144.40;100.00;60209.53;4855904;29;20049;-92
2022/11/12 05:36:33;;;;;;;12.13;5.25;;;;;;;-144.40;100.00;60209.53;4856835;29;20048;-94
2022/11/12 05:38:58;;;;;;;11.57;6.10;;;;;;;-144.40;100.00;60209.53;4853155;29;20557;-93
2022/11/12 05:41:24;;;;;;;7.22;5.57;;;;;;;-144.40;100.00;60209.53;4862357;29;20045;-92
2022/11/12 05:43:50;;;;;;;11.13;5.68;;;;;;;-144.40;100.00;60209.53;4853427;29;20037;-92
2022/11/12 05:46:15;;;;;;;11.13;6.05;;;;;;;-144.40;100.00;60209.53;4853404;29;20092;-95
2022/11/12 05:48:41;;;;;;;9.43;5.43;;;;;;;-144.40;100.00;60209.53;4854120;29;20082;-93
2022/11/12 05:51:06;;;;;;;14.15;5.47;;;;;;;-144.40;100.00;60209.53;4856094;29;20026;-93
2022/11/12 05:53:32;;;;;;;10.15;5.93;;;;;;;-144.40;100.00;60209.53;4858259;29;20026;-94
2022/11/12 05:56:05;;;;;;;11.40;5.30;;;;;;;-144.40;100.00;60209.53;4854769;29;20206;-94
2022/11/12 05:58:31;;;;;;;11.48;6.35;;;;;;;-144.40;100.00;60209.53;4854037;29;20052;-94
2022/11/12 06:00:57;;;;;;;10.27;5.90;;;;;;;-144.40;100.00;60209.53;4853242;29;20038;-93
2022/11/12 06:03:23;;;;;;;11.70;6.10;;;;;;;-144.40;100.00;60209.53;4856712;29;20036;-94
2022/11/12 06:05:49;;;;;;;11.73;6.30;;;;;;;-144.40;100.00;60209.53;4855321;29;20041;-94
2022/11/12 06:08:14;;;;;;;12.13;6.57;;;;;;;-144.40;100.00;60209.53;4854992;29;20034;-94
2022/11/12 06:10:40;;;;;;;9.63;7.25;;;;;;;-144.40;100.00;60209.53;4854823;29;20097;-93
2022/11/12 06:13:06;;;;;;;11.32;6.50;;;;;;;-144.40;100.00;60209.53;4853278;29;20449;-94
2022/11/12 06:15:32;;;;;;;10.88;7.10;;;;;;;-144.40;100.00;60209.53;4840738;29;20038;-92
2022/11/12 06:17:57;;;;;;;14.77;7.03;;;;;;;-144.40;100.00;60209.53;4853464;29;20041;-92
2022/11/12 06:20:23;;;;;;;17.63;8.38;;;;;;;-144.40;100.00;60209.53;4870679;29;20029;-92
2022/11/12 06:22:49;;;;;;;12.48;6.72;;;;;;;-144.40;100.00;60209.53;4865259;29;20030;-93
2022/11/12 06:25:16;;;;;;;12.40;6.60;;;;;;;-144.40;100.00;60209.53;4843123;29;20042;-93
2022/11/12 06:27:41;;;;;;;11.32;7.65;;;;;;;-144.40;100.00;60209.53;4849336;29;20031;-93
2022/11/12 06:30:08;;;;;;;13.10;7.88;;;;;;;-144.40;100.00;60209.53;4850478;29;20026;-93
2022/11/12 06:32:34;;;;;;;12.90;7.10;;;;;;;-144.40;100.00;60209.53;4849234;29;20046;-93
2022/11/12 06:35:00;;;;;;;9.45;7.05;;;;;;;-144.40;100.00;60209.53;4858511;29;20468;-93
2022/11/12 06:37:26;;;;;;;13.65;7.45;;;;;;;-144.40;100.00;60209.53;4851086;29;20113;-93
2022/11/12 06:39:51;;;;;;;12.48;7.45;;;;;;;-144.40;100.00;60209.53;4857992;29;20044;-94
2022/11/12 06:42:17;;;;;;;15.23;8.15;;;;;;;-144.40;100.00;60209.53;4859649;29;20052;-93
2022/11/12 06:44:42;;;;;;;14.15;7.45;;;;;;;-144.40;100.00;60209.53;4853679;29;20442;-93
2022/11/12 06:47:09;;;;;;;14.15;7.93;;;;;;;-144.40;100.00;60209.53;4854937;29;20092;-93
2022/11/12 06:49:34;;;;;;;14.18;8.15;;;;;;;-144.40;100.00;60209.53;4858089;29;20398;-92
2022/11/12 06:51:59;;;;;;;15.93;8.38;;;;;;;-144.40;100.00;60209.53;4857076;29;20033;-94
2022/11/12 06:54:25;;;;;;;16.77;7.95;;;;;;;-144.40;100.00;60209.53;4856285;29;20026;-93
2022/11/12 06:56:51;;;;;;;16.48;8.13;;;;;;;-144.40;100.00;60209.53;4857548;29;20381;-91
2022/11/12 06:59:16;;;;;;;11.73;8.13;;;;;;;-144.40;100.00;60209.53;4856905;29;20476;-92
2022/11/12 07:01:42;;;;;;;17.67;9.05;;;;;;;-144.40;100.00;60209.53;4858585;29;20765;-94
2022/11/12 07:04:07;;;;;;;13.68;7.88;;;;;;;-144.40;100.00;60209.53;4855680;29;20456;-93
2022/11/12 07:06:33;;;;;;;17.67;8.95;;;;;;;-144.40;100.00;60209.53;4853169;29;20037;-93
2022/11/12 07:08:58;;;;;;;15.70;9.10;;;;;;;-144.40;100.00;60209.53;4856142;29;20473;-94
2022/11/12 07:11:24;;;;;;;11.73;8.40;;;;;;;-144.40;100.00;60209.53;4850567;29;20441;-94
2022/11/12 07:13:49;;;;;;;16.38;9.13;;;;;;;-144.40;100.00;60209.53;4859436;29;20033;-94
2022/11/12 07:16:17;;;;;;;15.50;9.52;;;;;;;-144.40;100.00;60209.53;4858284;29;20040;-93
2022/11/12 07:18:44;;;;;;;17.45;9.02;;;;;;;-144.40;100.00;60209.53;4859316;29;20133;-94
2022/11/12 07:21:12;;;;;;;15.50;9.18;;;;;;;-144.40;100.00;60209.53;4856668;29;20035;-93
2022/11/12 07:23:38;;;;;;;16.58;9.65;;;;;;;-144.40;100.00;60209.53;4867447;29;20030;-94
2022/11/12 07:26:06;;;;;;;15.45;8.88;;;;;;;-144.40;100.00;60209.53;4839035;29;20497;-93
2022/11/12 07:28:32;;;;;;;15.90;10.63;;;;;;;-144.40;100.00;60209.53;4855692;29;20033;-93
2022/11/12 07:31:02;;;;;;;19.65;10.10;;;;;;;-144.40;100.00;60209.53;4854589;29;20089;-92
2022/11/12 07:33:28;;;;;;;16.13;9.45;;;;;;;-144.40;100.00;60209.53;4857641;29;20045;-92
2022/11/12 07:36:07;;;;;;;18.48;9.25;;;;;;;-144.40;100.00;60209.53;4857061;29;20089;-92
2022/11/12 07:38:35;;;;;;;16.95;8.82;;;;;;;-144.40;100.00;60209.53;4856883;29;20029;-93
2022/11/12 07:41:02;;;;;;;14.07;9.80;;;;;;;-144.40;100.00;60209.53;4857562;29;20029;-93
2022/11/12 07:43:31;;;;;;;13.88;10.00;;;;;;;-144.40;100.00;60209.53;4844019;29;20067;-93
2022/11/12 07:46:03;;;;;;;12.55;9.18;;;;;;;-144.40;100.00;60209.53;4860016;29;20030;-94
2022/11/12 07:48:30;;;;;;;12.95;10.20;;;;;;;-144.40;100.00;60209.53;4855294;29;20082;-92
2022/11/12 07:51:04;;;;;;;15.73;9.80;;;;;;;-144.40;100.00;60209.53;4848391;29;20037;-93
2022/11/12 07:53:29;;;;;;;16.65;9.93;;;;;;;-144.40;100.00;60209.53;4847200;29;20034;-92
2022/11/12 07:55:57;;;;;;;19.25;10.23;;;;;;;-144.40;100.00;60209.53;4852362;29;20103;-94
2022/11/12 07:58:23;;;;;;;14.88;10.00;;;;;;;-144.40;100.00;60209.53;4854339;29;20061;-92
2022/11/12 08:00:49;;;;;;;14.95;10.82;;;;;;;-144.40;100.00;60209.53;4858134;29;20111;-93
2022/11/12 08:03:15;;;;;;;17.63;10.43;;;;;;;-144.40;100.00;60209.53;4852774;29;20033;-92
2022/11/12 08:05:40;;;;;;;13.88;9.65;;;;;;;-144.40;100.00;60209.53;4856162;29;20041;-92
2022/11/12 08:08:06;;;;;;;15.85;10.43;;;;;;;-144.40;100.00;60209.53;4854964;29;20042;-93
2022/11/12 08:10:32;;;;;;;17.73;10.40;;;;;;;-144.40;100.00;60209.53;4857958;29;20124;-93
2022/11/12 08:12:57;;;;;;;15.65;10.85;;;;;;;-144.40;100.00;60209.53;4856178;29;20488;-93
2022/11/12 08:15:23;;;;;;;14.80;10.43;;;;;;;-144.40;100.00;60209.53;4857323;29;20030;-92
2022/11/12 08:17:48;;;;;;;14.75;9.65;;;;;;;-144.40;100.00;60209.53;4856053;29;20540;-93
2022/11/12 08:20:14;;;;;;;18.88;10.63;;;;;;;-144.40;100.00;60209.53;4854481;29;20093;-92
2022/11/12 08:22:39;;;;;;;21.65;10.52;;;;;;;-144.40;100.00;60209.53;4852381;29;20026;-93
2022/11/12 08:25:06;;;;;;;17.42;9.70;;;;;;;-144.40;100.00;60209.53;4855401;29;20064;-93
2022/11/12 08:27:32;;;;;;;22.13;10.77;;;;;;;-144.40;100.00;60209.53;4853024;29;20033;-93
2022/11/12 08:29:58;;;;;;;16.23;10.35;;;;;;;-144.40;100.00;60209.53;4849588;29;20229;-92
2022/11/12 08:32:23;;;;;;;18.42;11.13;;;;;;;-144.40;100.00;60209.53;4849492;29;20343;-93
2022/11/12 08:34:49;;;;;;;15.07;10.05;;;;;;;-144.40;100.00;60209.53;4843452;29;20045;-93
2022/11/12 08:37:15;;;;;;;18.20;10.70;;;;;;;-144.40;100.00;60209.53;4856343;29;20025;-92
2022/11/12 08:39:40;;;;;;;17.42;10.55;;;;;;;-144.40;100.00;60209.53;4855184;29;20076;-92
2022/11/12 08:42:06;;;;;;;19.77;10.95;;;;;;;-144.40;100.00;60209.53;4855657;29;20029;-92
2022/11/12 08:44:31;;;;;;;21.60;11.23;;;;;;;-144.40;100.00;60209.53;4853604;29;20021;-93
2022/11/12 08:46:58;;;;;;;24.08;11.80;;;;;;;-144.40;100.00;60209.53;4849561;29;20037;-95
2022/11/12 08:49:24;;;;;;;18.50;11.57;;;;;;;-144.40;100.00;60209.53;4856023;29;20496;-94
2022/11/12 08:51:49;;;;;;;15.93;11.80;;;;;;;-144.40;100.00;60209.53;4868761;29;20088;-94
2022/11/12 08:54:15;;;;;;;15.00;11.10;;;;;;;-144.40;100.00;60209.53;4855367;29;20026;-93
2022/11/12 08:56:41;;;;;;;21.73;12.10;;;;;;;-144.40;100.00;60209.53;4855705;29;20113;-93
2022/11/12 08:59:06;;;;;;;21.73;12.15;;;;;;;-144.40;100.00;60209.53;4855336;29;20029;-92
2022/11/12 09:01:32;;;;;;;19.75;11.45;;;;;;;-144.40;100.00;60209.53;4849017;29;20045;-93
2022/11/12 09:03:57;;;;;;;17.23;11.40;;;;;;;-144.40;100.00;60209.53;4856660;29;20033;-93
2022/11/12 09:06:22;;;;;;;17.52;12.10;;;;;;;-144.40;100.00;60209.53;4856065;29;20025;-93
2022/11/12 09:08:48;;;;;;;17.63;11.98;;;;;;;-144.40;100.00;60209.53;4859959;29;20041;-93
2022/11/12 09:11:13;;;;;;;17.48;11.10;;;;;;;-144.40;100.00;60209.53;4845270;29;20036;-94
2022/11/12 09:13:39;;;;;;;20.85;10.43;;;;;;;-144.40;100.00;60209.53;4855376;29;20812;-94
2022/11/12 09:16:06;;;;;;;18.50;12.02;;;;;;;-144.40;100.00;60209.53;4856708;29;20033;-94
2022/11/12 09:18:33;;;;;;;19.65;10.90;;;;;;;-144.40;100.00;60209.53;4854073;29;20041;-94
2022/11/12 09:21:05;;;;;;;25.75;11.80;;;;;;;-144.40;100.00;60209.53;4856004;29;20503;-94
2022/11/12 09:23:32;;;;;;;23.10;11.13;;;;;;;-144.40;100.00;60209.53;4852498;29;20030;-93
2022/11/12 09:25:58;;;;;;;15.02;10.48;;;;;;;-144.40;100.00;60209.53;4851114;29;20029;-94
2022/11/12 09:28:24;;;;;;;18.08;10.98;;;;;;;-144.40;100.00;60209.53;4851721;29;20378;-94
2022/11/12 09:30:51;;;;;;;23.67;12.30;;;;;;;-144.40;100.00;60209.53;4849447;29;20075;-94
2022/11/12 09:33:20;;;;;;;15.77;11.77;;;;;;;-144.40;100.00;60209.53;4851825;29;20029;-95
2022/11/12 09:35:49;;;;;;;20.42;11.18;;;;;;;-144.40;100.00;60209.53;4855413;29;20181;-95
2022/11/12 09:38:16;;;;;;;17.55;11.35;;;;;;;-144.40;100.00;60209.53;4853251;29;20037;-94
2022/11/12 09:41:14;;;;;;;18.08;10.98;;;;;;;-144.40;100.00;60209.53;4852398;29;20036;-94
2022/11/12 09:43:49;;;;;;;18.38;10.88;;;;;;;-144.40;100.00;60209.53;4873656;29;20374;-95
2022/11/12 09:46:17;;;;;;;15.27;11.25;;;;;;;-144.40;100.00;60209.53;4845534;29;20030;-94
2022/11/12 09:48:48;;;;;;;20.63;10.98;;;;;;;-144.40;100.00;60209.53;4851172;29;20064;-95
2022/11/12 09:51:58;;;;;;;16.13;9.90;;;;;;;-144.40;100.00;60209.53;4853857;29;20037;-94
2022/11/12 09:54:35;;;;;;;13.85;9.60;;;;;;;-144.40;100.00;60209.53;4846522;29;20295;-94
2022/11/12 09:57:01;;;;;;;16.60;9.50;;;;;;;-144.40;100.00;60209.53;4868363;29;20094;-95
2022/11/12 09:59:32;;;;;;;14.45;9.15;;;;;;;-144.40;100.00;60209.53;4854412;29;20030;-95
2022/11/12 10:02:00;;;;;;;20.40;9.68;;;;;;;-144.40;100.00;60209.53;4855947;29;20037;-94
2022/11/12 10:04:40;;;;;;;14.10;9.63;;;;;;;-144.40;100.00;60209.53;4854508;29;20476;-94
2022/11/12 10:07:43;;;;;;;11.45;8.93;;;;;;;-144.40;100.00;60209.53;4851437;29;20037;-94
2022/11/12 10:10:22;;;;;;;15.13;8.82;;;;;;;-144.40;100.00;60209.53;4855686;29;20029;-95
2022/11/12 10:13:12;;;;;;;12.60;8.23;;;;;;;-144.40;100.00;60209.53;4871543;29;20045;-94
2022/11/12 10:18:47;;;;;;;14.77;7.78;;;;;;;-144.40;100.00;60209.53;4860619;29;20048;-93
2022/11/12 10:21:15;;;;;;;13.20;7.00;;;;;;;-144.40;100.00;60209.53;4856188;29;20658;-93
2022/11/12 10:23:48;;;;;;;13.23;6.50;;;;;;;-144.40;100.00;60209.53;4858543;29;20041;-95
2022/11/12 10:26:16;;;;;;;11.90;6.90;;;;;;;-144.40;100.00;60209.53;4857705;29;20156;-96
2022/11/12 10:29:06;;;;;;;8.82;6.13;;;;;;;-144.40;100.00;60209.53;4857444;29;20036;-94
2022/11/12 10:31:32;;;;;;;11.95;5.60;;;;;;;-144.40;100.00;60209.53;4857708;29;20085;-94
2022/11/12 10:34:13;;;;;;;17.65;6.15;;;;;;;-144.40;100.00;60209.53;4857480;29;20034;-94
2022/11/12 10:37:04;;;;;;;11.10;5.43;;;;;;;-144.40;100.00;60209.53;4844215;29;20065;-93
2022/11/12 10:39:35;;;;;;;9.23;5.03;;;;;;;-144.40;100.00;60209.53;4843257;29;20118;-93
2022/11/12 10:42:09;;;;;;;10.20;5.50;;;;;;;-144.40;100.00;60209.53;4856211;29;20114;-94
2022/11/12 10:44:35;;;;;;;10.63;5.53;;;;;;;-144.40;100.00;60209.53;4847438;29;20037;-93
2022/11/12 10:47:22;;;;;;;11.57;5.20;;;;;;;-144.40;100.00;60209.53;4857935;29;20089;-94
2022/11/12 10:50:09;;;;;;;9.20;4.28;;;;;;;-144.40;100.00;60209.53;4856576;29;20388;-95
2022/11/12 10:52:54;;;;;;;9.90;4.70;;;;;;;-144.40;100.00;60209.53;4859054;29;20057;-96
2022/11/12 10:55:35;;;;;;;7.18;3.92;;;;;;;-144.40;100.00;60209.53;4848410;29;20030;-94
2022/11/12 10:58:10;;;;;;;8.10;4.30;;;;;;;-144.40;100.00;60209.53;4857094;29;20098;-94
2022/11/12 11:11:58;;;;;;;6.25;3.63;;;;;;;-144.40;100.00;60209.53;3186209;27;20054;-94
2022/11/12 11:14:30;;;;;;;11.15;3.58;;;;;;;-144.40;100.00;60209.53;4857481;29;20048;-92
2022/11/12 11:16:59;;;;;;;8.45;3.72;;;;;;;-144.40;100.00;60209.53;4848597;29;20041;-92
2022/11/12 11:19:33;;;;;;;7.97;3.20;;;;;;;-144.40;100.00;60209.53;4842751;29;20033;-91
2022/11/12 11:22:45;;;;;;;5.82;3.40;;;;;;;-144.40;100.00;60209.53;4870547;29;20029;-93
2022/11/12 11:25:32;;;;;;;7.82;3.58;;;;;;;-144.40;100.00;60209.53;4846394;29;20194;-91
2022/11/12 11:28:22;;;;;;;6.90;3.13;;;;;;;-144.40;100.00;60209.53;4851612;29;20157;-90
2022/11/12 11:31:07;;;;;;;6.93;3.45;;;;;;;-144.40;100.00;60209.53;4849913;29;20034;-91
2022/11/12 11:33:35;;;;;;;5.20;3.22;;;;;;;-144.40;100.00;60209.53;4843953;29;20029;-90
2022/11/12 11:36:12;;;;;;;6.20;3.10;;;;;;;-144.40;100.00;60209.53;4847929;29;20120;-90
2022/11/12 11:38:40;;;;;;;3.55;2.70;;;;;;;-144.40;100.00;60209.53;4851521;29;20405;-91
2022/11/12 11:41:15;;;;;;;7.55;3.33;;;;;;;-144.40;100.00;60209.53;4847255;29;20109;-89
2022/11/12 11:44:01;;;;;;;6.05;2.97;;;;;;;-144.40;100.00;60209.53;4849088;29;20038;-91